createdAt,value
2018-09-23T00:00:18.231Z,13.14
2018-09-23T00:02:53.464Z,13.19
2018-09-23T00:05:32.691Z,13.23
2018-09-23T00:08:05.681Z,13.27
2018-09-23T00:10:35.084Z,13.24
2018-09-23T00:13:06.095Z,13.15
2018-09-23T00:15:38.894Z,13.04
2018-09-23T00:18:09.889Z,13.12
2018-09-23T00:20:59.106Z,13.13
2018-09-23T00:23:36.385Z,13.22
2018-09-23T00:26:10.100Z,13.12
2018-09-23T00:28:44.995Z,13.11
2018-09-23T00:31:14.344Z,13.03
2018-09-23T00:33:56.344Z,13.10
2018-09-23T00:36:25.680Z,13.14
2018-09-23T00:38:58.289Z,13.14
2018-09-23T00:41:32.557Z,13.05
2018-09-23T00:44:01.441Z,13.07
2018-09-23T00:46:30.337Z,13.05
2018-09-23T00:49:00.327Z,13.00
2018-09-23T00:51:29.206Z,13.02
2018-09-23T00:53:58.152Z,13.19
2018-09-23T00:56:27.038Z,13.16
2018-09-23T00:58:55.984Z,13.12
2018-09-23T01:01:24.973Z,13.10
2018-09-23T01:07:00.692Z,13.11
2018-09-23T01:09:30.606Z,13.17
2018-09-23T01:12:03.218Z,13.24
2018-09-23T01:14:32.281Z,13.24
2018-09-23T01:17:01.150Z,13.25
2018-09-23T01:19:30.065Z,13.24
2018-09-23T01:22:02.837Z,13.26
2018-09-23T01:24:31.729Z,13.28
2018-09-23T01:27:00.655Z,13.25
2018-09-23T01:29:29.581Z,13.22
2018-09-23T01:31:58.494Z,13.25
2018-09-23T01:34:38.327Z,13.28
2018-09-23T01:37:11.708Z,13.28
2018-09-23T01:39:40.581Z,13.28
2018-09-23T01:42:09.493Z,13.24
2018-09-23T01:44:38.403Z,13.21
2018-09-23T01:47:09.660Z,13.16
2018-09-23T01:49:38.603Z,13.17
2018-09-23T01:52:07.475Z,13.13
2018-09-23T01:54:36.424Z,13.18
2018-09-23T01:57:06.200Z,13.07
2018-09-23T01:59:36.172Z,13.18
2018-09-23T02:02:11.284Z,13.23
2018-09-23T02:04:40.186Z,13.26
2018-09-23T02:07:09.125Z,13.28
2018-09-23T02:09:45.801Z,13.20
2018-09-23T02:12:14.902Z,13.28
2018-09-23T02:14:58.059Z,13.32
2018-09-23T02:17:27.133Z,13.22
2018-09-23T02:19:56.029Z,13.21
2018-09-23T02:22:34.712Z,13.25
2018-09-23T02:25:03.761Z,13.28
2018-09-23T02:27:33.853Z,13.32
2018-09-23T02:30:02.799Z,13.29
2018-09-23T02:32:31.705Z,13.29
2018-09-23T02:35:00.604Z,13.31
2018-09-23T02:37:30.619Z,13.24
2018-09-23T02:39:59.585Z,13.33
2018-09-23T02:42:35.137Z,13.29
2018-09-23T02:45:04.323Z,13.31
2018-09-23T02:47:33.272Z,13.28
2018-09-23T02:50:02.176Z,13.29
2018-09-23T02:52:31.048Z,13.31
2018-09-23T02:55:01.098Z,13.34
2018-09-23T02:57:30.000Z,13.32
2018-09-23T03:00:03.858Z,13.35
2018-09-23T03:02:32.779Z,13.38
2018-09-23T03:05:01.660Z,13.40
2018-09-23T03:07:30.583Z,13.40
2018-09-23T03:09:59.458Z,13.37
2018-09-23T03:12:47.419Z,13.36
2018-09-23T03:15:16.512Z,13.36
2018-09-23T03:17:45.392Z,13.30
2018-09-23T03:20:14.287Z,13.34
2018-09-23T03:22:43.259Z,13.37
2018-09-23T03:25:13.223Z,13.37
2018-09-23T03:27:45.220Z,13.40
2018-09-23T03:30:14.122Z,13.39
2018-09-23T03:32:43.033Z,13.34
2018-09-23T03:35:15.315Z,13.36
2018-09-23T03:37:51.015Z,13.39
2018-09-23T03:40:21.033Z,13.35
2018-09-23T03:42:50.174Z,13.37
2018-09-23T03:45:19.081Z,13.40
2018-09-23T03:47:48.035Z,13.39
2018-09-23T03:50:19.078Z,13.31
2018-09-23T03:52:48.000Z,13.35
2018-09-23T03:55:16.908Z,13.28
2018-09-23T03:57:45.808Z,13.28
2018-09-23T04:00:14.698Z,13.37
2018-09-23T04:02:43.705Z,13.38
2018-09-23T04:05:14.637Z,13.38
2018-09-23T04:07:44.898Z,13.31
2018-09-23T04:10:13.858Z,13.36
2018-09-23T04:13:05.647Z,13.28
2018-09-23T04:15:35.619Z,13.36
2018-09-23T04:18:15.998Z,13.39
2018-09-23T04:20:49.207Z,13.37
2018-09-23T04:23:40.424Z,13.25
2018-09-23T04:26:15.161Z,13.29
2018-09-23T04:28:49.320Z,13.32
2018-09-23T04:31:24.561Z,13.33
2018-09-23T04:33:56.819Z,13.33
2018-09-23T04:36:25.725Z,13.42
2018-09-23T04:38:58.569Z,13.37
2018-09-23T04:41:32.448Z,13.74
2018-09-23T04:44:07.807Z,13.69
2018-09-23T04:46:50.744Z,13.54
2018-09-23T04:49:26.648Z,13.49
2018-09-23T04:51:55.542Z,13.47
2018-09-23T04:54:26.572Z,13.42
2018-09-23T04:57:12.547Z,13.41
2018-09-23T04:59:41.465Z,13.35
2018-09-23T05:02:12.463Z,13.36
2018-09-23T05:04:42.401Z,13.38
2018-09-23T05:07:16.189Z,13.33
2018-09-23T05:09:53.551Z,13.30
2018-09-23T05:12:28.313Z,13.35
2018-09-23T05:14:57.649Z,13.37
2018-09-23T05:17:28.803Z,13.44
2018-09-23T05:20:05.077Z,13.38
2018-09-23T05:22:34.013Z,13.35
2018-09-23T05:25:03.043Z,13.45
2018-09-23T05:27:32.004Z,13.41
2018-09-23T05:30:04.056Z,13.42
2018-09-23T05:32:48.925Z,13.42
2018-09-23T05:35:18.839Z,13.40
2018-09-23T05:38:12.068Z,13.39
2018-09-23T05:40:41.175Z,13.40
2018-09-23T05:43:28.707Z,13.42
2018-09-23T05:46:00.773Z,13.40
2018-09-23T05:48:40.169Z,13.36
2018-09-23T05:51:16.933Z,13.39
2018-09-23T05:53:45.995Z,13.30
2018-09-23T05:56:20.618Z,13.35
2018-09-23T05:58:56.328Z,13.35
2018-09-23T06:01:29.728Z,13.44
2018-09-23T06:04:08.218Z,13.38
2018-09-23T06:06:40.674Z,13.39
2018-09-23T06:09:10.802Z,13.37
2018-09-23T06:11:41.945Z,13.39
2018-09-23T06:14:11.056Z,13.40
2018-09-23T06:16:40.031Z,13.44
2018-09-23T06:19:10.237Z,13.45
2018-09-23T06:21:39.138Z,13.49
2018-09-23T06:24:15.206Z,13.44
2018-09-23T06:26:46.141Z,13.44
2018-09-23T06:29:15.041Z,13.49
2018-09-23T06:31:56.134Z,13.52
2018-09-23T06:34:25.160Z,13.46
2018-09-23T06:36:54.369Z,13.42
2018-09-23T06:39:24.336Z,13.51
2018-09-23T06:41:55.984Z,13.39
2018-09-23T06:44:27.126Z,13.48
2018-09-23T06:46:56.217Z,13.53
2018-09-23T06:49:36.062Z,13.53
2018-09-23T06:52:05.211Z,13.51
2018-09-23T06:54:36.238Z,13.58
2018-09-23T06:57:05.192Z,13.60
2018-09-23T06:59:38.077Z,13.59
2018-09-23T07:02:08.969Z,13.56
2018-09-23T07:04:44.065Z,13.53
2018-09-23T07:07:35.105Z,13.57
2018-09-23T07:10:10.194Z,13.60
2018-09-23T07:12:39.225Z,13.59
2018-09-23T07:15:08.417Z,13.56
2018-09-23T07:17:37.436Z,13.55
2018-09-23T07:20:09.506Z,13.51
2018-09-23T07:22:42.504Z,13.50
2018-09-23T07:25:13.655Z,13.37
2018-09-23T07:27:42.707Z,13.44
2018-09-23T07:30:15.258Z,13.59
2018-09-23T07:32:44.254Z,13.58
2018-09-23T07:35:13.403Z,13.57
2018-09-23T07:37:44.364Z,13.55
2018-09-23T07:40:18.845Z,13.63
2018-09-23T07:42:48.303Z,13.51
2018-09-23T07:45:17.306Z,13.50
2018-09-23T07:47:48.259Z,13.55
2018-09-23T07:50:24.736Z,13.59
2018-09-23T07:52:53.748Z,13.63
2018-09-23T07:55:23.708Z,13.70
2018-09-23T07:57:54.690Z,13.76
2018-09-23T08:00:41.727Z,13.57
2018-09-23T08:03:16.945Z,13.64
2018-09-23T08:05:45.979Z,13.74
2018-09-23T08:08:14.982Z,13.76
2018-09-23T08:10:43.983Z,13.75
2018-09-23T08:13:15.113Z,13.74
2018-09-23T08:15:45.050Z,13.65
2018-09-23T08:18:14.060Z,13.81
2018-09-23T08:20:44.056Z,13.89
2018-09-23T08:23:13.253Z,13.84
2018-09-23T08:25:53.958Z,13.76
2018-09-23T08:28:23.036Z,13.86
2018-09-23T08:30:55.502Z,13.93
2018-09-23T08:33:25.686Z,13.93
2018-09-23T08:36:04.358Z,13.82
2018-09-23T08:38:36.829Z,13.79
2018-09-23T08:41:08.464Z,13.85
2018-09-23T08:43:38.599Z,13.83
2018-09-23T08:46:09.660Z,13.84
2018-09-23T08:48:42.814Z,13.73
2018-09-23T08:51:12.087Z,13.73
2018-09-23T08:53:41.021Z,13.78
2018-09-23T08:56:10.107Z,13.76
2018-09-23T08:58:39.248Z,13.76
2018-09-23T09:01:08.189Z,13.72
2018-09-23T09:03:37.274Z,13.70
2018-09-23T09:06:06.356Z,13.71
2018-09-23T09:08:35.606Z,13.73
2018-09-23T09:11:04.678Z,13.81
2018-09-23T09:13:34.397Z,13.89
2018-09-23T09:16:07.922Z,13.82
2018-09-23T09:18:37.145Z,13.89
2018-09-23T09:21:06.431Z,13.92
2018-09-23T09:23:35.971Z,13.95
2018-09-23T09:26:05.550Z,13.96
2018-09-23T09:28:34.962Z,13.94
2018-09-23T09:31:05.638Z,14.00
2018-09-23T09:33:36.392Z,14.02
2018-09-23T09:36:10.575Z,14.01
2018-09-23T09:38:39.825Z,13.99
2018-09-23T09:41:16.029Z,14.04
2018-09-23T09:43:48.074Z,13.98
2018-09-23T09:46:18.872Z,14.03
2018-09-23T09:48:51.755Z,13.98
2018-09-23T09:51:26.493Z,13.89
2018-09-23T09:53:59.474Z,13.93
2018-09-23T09:56:32.467Z,13.89
2018-09-23T09:59:01.469Z,13.90
2018-09-23T10:01:30.491Z,13.99
2018-09-23T10:03:59.677Z,13.97
2018-09-23T10:06:29.454Z,13.99
2018-09-23T10:08:58.469Z,13.91
2018-09-23T10:11:27.491Z,13.80
2018-09-23T10:13:56.452Z,13.78
2018-09-23T10:16:25.436Z,13.91
2018-09-23T10:18:56.478Z,13.84
2018-09-23T10:21:25.484Z,13.92
2018-09-23T10:23:54.796Z,13.87
2018-09-23T10:26:29.061Z,13.81
2018-09-23T10:28:58.071Z,13.84
2018-09-23T10:31:27.230Z,13.91
2018-09-23T10:33:56.163Z,13.83
2018-09-23T10:36:25.233Z,13.70
2018-09-23T10:38:54.857Z,13.72
2018-09-23T10:41:28.200Z,13.74
2018-09-23T10:44:03.198Z,13.78
2018-09-23T10:46:41.676Z,13.67
2018-09-23T10:49:16.184Z,13.66
2018-09-23T10:51:46.039Z,13.75
2018-09-23T10:54:17.416Z,13.73
2018-09-23T10:56:46.519Z,13.64
2018-09-23T10:59:18.260Z,13.70
2018-09-23T11:01:49.790Z,13.57
2018-09-23T11:04:25.262Z,13.61
2018-09-23T11:06:54.204Z,13.63
2018-09-23T11:09:28.157Z,13.58
2018-09-23T11:12:09.637Z,13.53
2018-09-23T11:14:44.076Z,13.55
2018-09-23T11:17:18.004Z,13.50
2018-09-23T11:19:46.983Z,13.51
2018-09-23T11:22:16.948Z,13.53
2018-09-23T11:24:47.103Z,13.49
2018-09-23T11:27:16.110Z,13.63
2018-09-23T11:29:49.740Z,13.55
2018-09-23T11:32:18.664Z,13.61
2018-09-23T11:34:48.924Z,13.53
2018-09-23T11:37:19.985Z,13.56
2018-09-23T11:39:49.001Z,13.35
2018-09-23T11:42:20.026Z,13.31
2018-09-23T11:44:50.006Z,13.37
2018-09-23T11:47:19.116Z,13.46
2018-09-23T11:49:49.147Z,13.42
2018-09-23T11:52:19.142Z,13.27
2018-09-23T11:54:48.123Z,13.27
2018-09-23T11:57:20.590Z,13.12
2018-09-23T11:59:51.734Z,13.25
2018-09-23T12:02:25.278Z,13.21
2018-09-23T12:04:57.357Z,13.05
2018-09-23T12:07:26.320Z,13.06
2018-09-23T12:09:56.501Z,13.06
2018-09-23T12:12:25.397Z,13.10
2018-09-23T12:15:00.400Z,13.05
2018-09-23T12:17:30.553Z,12.84
2018-09-23T12:20:02.956Z,12.74
2018-09-23T12:22:31.956Z,12.97
2018-09-23T12:25:01.253Z,12.96
2018-09-23T12:27:30.220Z,12.90
2018-09-23T12:30:01.413Z,12.88
2018-09-23T12:32:34.125Z,12.86
2018-09-23T12:35:08.209Z,12.73
2018-09-23T12:37:38.511Z,12.66
2018-09-23T12:40:08.686Z,12.97
2018-09-23T12:42:39.693Z,12.84
2018-09-23T12:45:09.785Z,12.81
2018-09-23T12:47:38.899Z,12.94
2018-09-23T12:50:13.513Z,13.27
2018-09-23T12:52:42.485Z,13.74
2018-09-23T12:55:16.057Z,13.59
2018-09-23T12:57:47.020Z,13.11
2018-09-23T13:00:20.036Z,12.85
2018-09-23T13:02:49.131Z,12.79
2018-09-23T13:05:18.118Z,12.85
2018-09-23T13:07:47.145Z,12.82
2018-09-23T13:10:34.220Z,12.86
2018-09-23T13:13:04.296Z,12.87
2018-09-23T13:15:33.163Z,12.93
2018-09-23T13:18:02.434Z,12.81
2018-09-23T13:20:34.988Z,12.71
2018-09-23T13:23:03.898Z,12.78
2018-09-23T13:25:39.159Z,12.96
2018-09-23T13:28:09.182Z,12.89
2018-09-23T13:30:38.274Z,12.90
2018-09-23T13:33:09.439Z,12.85
2018-09-23T13:35:38.469Z,12.92
2018-09-23T13:38:07.413Z,12.92
2018-09-23T13:40:36.380Z,12.84
2018-09-23T13:43:08.648Z,12.85
2018-09-23T13:45:37.688Z,12.65
2018-09-23T13:48:06.641Z,12.63
2018-09-23T13:50:35.538Z,12.51
2018-09-23T13:53:04.455Z,12.43
2018-09-23T13:55:39.097Z,12.39
2018-09-23T13:58:07.969Z,12.44
2018-09-23T14:00:36.928Z,12.59
2018-09-23T14:03:06.059Z,12.67
2018-09-23T14:08:35.312Z,12.56
2018-09-23T14:11:04.265Z,12.52
2018-09-23T14:13:37.625Z,12.50
2018-09-23T14:16:20.565Z,12.42
2018-09-23T14:18:57.941Z,12.44
2018-09-23T14:21:26.876Z,12.48
2018-09-23T14:23:55.932Z,12.59
2018-09-23T14:26:37.442Z,12.52
2018-09-23T14:29:06.990Z,12.44
2018-09-23T14:31:35.919Z,12.46
2018-09-23T14:34:04.893Z,12.37
2018-09-23T14:36:33.815Z,12.43
2018-09-23T14:39:02.764Z,12.32
2018-09-23T14:41:49.221Z,12.27
2018-09-23T14:44:22.387Z,12.20
2018-09-23T14:46:59.629Z,12.35
2018-09-23T14:49:32.070Z,12.32
2018-09-23T14:52:12.364Z,12.19
2018-09-23T14:54:47.120Z,12.25
2018-09-23T14:57:15.895Z,12.33
2018-09-23T14:59:44.962Z,12.48
2018-09-23T15:02:36.679Z,12.35
2018-09-23T15:05:06.981Z,12.19
2018-09-23T15:07:35.973Z,12.34
2018-09-23T15:10:17.207Z,12.42
2018-09-23T15:12:46.135Z,12.27
2018-09-23T15:15:15.133Z,12.32
2018-09-23T15:17:44.047Z,12.41
2018-09-23T15:20:13.187Z,12.28
2018-09-23T15:22:42.101Z,12.18
2018-09-23T15:25:31.197Z,12.16
2018-09-23T15:28:00.701Z,11.98
2018-09-23T15:30:29.612Z,12.13
2018-09-23T15:33:08.197Z,12.29
2018-09-23T15:35:54.461Z,12.10
2018-09-23T15:38:32.837Z,12.18
2018-09-23T15:41:06.079Z,12.13
2018-09-23T15:43:36.298Z,12.06
2018-09-23T15:46:10.404Z,12.06
2018-09-23T15:48:46.774Z,12.05
2018-09-23T15:51:15.707Z,12.01
2018-09-23T15:53:44.685Z,12.05
2018-09-23T15:56:19.401Z,12.13
2018-09-23T15:59:04.763Z,12.12
2018-09-23T16:01:42.091Z,12.10
2018-09-23T16:04:11.119Z,12.10
2018-09-23T16:06:40.182Z,12.12
2018-09-23T16:09:09.812Z,11.75
2018-09-23T16:11:40.019Z,11.88
2018-09-23T16:14:10.097Z,11.69
2018-09-23T16:16:43.539Z,11.82
2018-09-23T16:19:14.679Z,11.86
2018-09-23T16:21:45.685Z,11.88
2018-09-23T16:24:14.675Z,11.85
2018-09-23T16:26:44.717Z,11.74
2018-09-23T16:29:15.759Z,11.83
2018-09-23T16:31:44.708Z,11.92
2018-09-23T16:34:13.761Z,11.78
2018-09-23T16:36:44.761Z,11.78
2018-09-23T16:39:15.771Z,11.90
2018-09-23T16:41:48.062Z,11.91
2018-09-23T16:44:17.140Z,11.83
2018-09-23T16:46:46.168Z,11.89
2018-09-23T16:49:15.086Z,11.76
2018-09-23T16:51:45.053Z,11.61
2018-09-23T16:54:15.047Z,11.45
2018-09-23T16:56:45.998Z,11.77
2018-09-23T16:59:17.000Z,11.90
2018-09-23T17:01:48.125Z,11.93
2018-09-23T17:04:22.264Z,11.83
2018-09-23T17:06:52.270Z,11.89
2018-09-23T17:09:24.958Z,11.87
2018-09-23T17:11:53.982Z,11.77
2018-09-23T17:14:23.203Z,11.78
2018-09-23T17:16:54.307Z,11.98
2018-09-23T17:19:33.661Z,11.93
2018-09-23T17:22:08.431Z,11.88
2018-09-23T17:24:44.485Z,12.07
2018-09-23T17:27:19.082Z,12.10
2018-09-23T17:29:49.103Z,12.12
2018-09-23T17:32:18.142Z,12.02
2018-09-23T17:34:50.612Z,12.00
2018-09-23T17:37:19.640Z,11.92
2018-09-23T17:39:48.887Z,12.03
2018-09-23T17:42:20.008Z,12.11
2018-09-23T17:44:49.149Z,11.94
2018-09-23T17:47:19.211Z,11.93
2018-09-23T17:49:48.195Z,12.02
2018-09-23T17:52:19.298Z,11.96
2018-09-23T17:55:01.503Z,12.05
2018-09-23T17:57:31.513Z,12.14
2018-09-23T18:00:01.504Z,12.10
2018-09-23T18:02:35.694Z,12.15
2018-09-23T18:05:15.157Z,12.21
2018-09-23T18:07:45.223Z,12.03
2018-09-23T18:10:16.225Z,12.27
2018-09-23T18:12:48.927Z,12.11
2018-09-23T18:15:17.992Z,12.10
2018-09-23T18:17:48.801Z,12.11
2018-09-23T18:20:19.732Z,12.16
2018-09-23T18:22:48.778Z,11.97
2018-09-23T18:25:17.744Z,11.93
2018-09-23T18:27:51.835Z,11.97
2018-09-23T18:30:21.055Z,11.97
2018-09-23T18:32:50.091Z,11.79
2018-09-23T18:35:20.106Z,11.94
2018-09-23T18:37:50.368Z,12.00
2018-09-23T18:40:20.335Z,11.98
2018-09-23T18:42:49.586Z,11.92
2018-09-23T18:45:18.493Z,11.86
2018-09-23T18:47:47.601Z,11.90
2018-09-23T18:50:16.597Z,11.97
2018-09-23T18:52:51.114Z,11.90
2018-09-23T18:55:25.881Z,11.89
2018-09-23T18:57:54.976Z,11.87
2018-09-23T19:00:26.136Z,11.83
2018-09-23T19:03:00.331Z,11.94
2018-09-23T19:05:35.619Z,11.82
2018-09-23T19:08:05.672Z,11.81
2018-09-23T19:10:37.828Z,11.89
2018-09-23T19:13:16.183Z,11.92
2018-09-23T19:15:55.312Z,11.78
2018-09-23T19:18:25.279Z,11.86
2018-09-23T19:20:54.410Z,11.95
2018-09-23T19:23:24.408Z,11.90
2018-09-23T19:26:06.181Z,11.96
2018-09-23T19:28:40.306Z,12.02
2018-09-23T19:31:11.301Z,11.99
2018-09-23T19:33:40.302Z,12.00
2018-09-23T19:36:12.998Z,11.98
2018-09-23T19:38:45.457Z,11.94
2018-09-23T19:41:14.487Z,11.91
2018-09-23T19:43:47.283Z,11.86
2018-09-23T19:46:16.285Z,11.75
2018-09-23T19:48:45.382Z,11.78
2018-09-23T19:51:14.455Z,11.73
2018-09-23T19:53:43.502Z,11.87
2018-09-23T19:56:12.929Z,11.73
2018-09-23T19:58:46.882Z,11.88
2018-09-23T20:01:19.260Z,11.93
2018-09-23T20:03:48.322Z,12.06
2018-09-23T20:06:18.805Z,11.94
2018-09-23T20:08:47.751Z,11.82
2018-09-23T20:11:22.798Z,12.00
2018-09-23T20:13:52.026Z,11.90
2018-09-23T20:16:23.231Z,11.99
2018-09-23T20:18:55.417Z,11.96
2018-09-23T20:21:26.676Z,11.94
2018-09-23T20:23:56.679Z,11.97
2018-09-23T20:26:33.561Z,11.91
2018-09-23T20:29:02.499Z,11.92
2018-09-23T20:31:32.457Z,11.89
2018-09-23T20:34:04.595Z,11.88
2018-09-23T20:36:34.663Z,11.85
2018-09-23T20:39:08.801Z,11.99
2018-09-23T20:41:37.836Z,11.96
2018-09-23T20:44:06.856Z,12.02
2018-09-23T20:46:45.851Z,11.94
2018-09-23T20:49:15.002Z,11.97
2018-09-23T20:51:44.818Z,11.95
2018-09-23T20:54:13.750Z,11.99
2018-09-23T20:56:49.252Z,11.98
2018-09-23T20:59:22.653Z,11.85
2018-09-23T21:01:55.682Z,11.90
2018-09-23T21:04:32.320Z,11.83
2018-09-23T21:07:01.243Z,11.93
2018-09-23T21:09:30.214Z,11.80
2018-09-23T21:11:59.224Z,11.95
2018-09-23T21:14:28.128Z,11.91
2018-09-23T21:16:57.032Z,11.93
2018-09-23T21:19:26.370Z,11.81
2018-09-23T21:21:55.278Z,11.84
2018-09-23T21:24:37.066Z,11.96
2018-09-23T21:27:07.031Z,11.95
2018-09-23T21:29:49.600Z,11.89
2018-09-23T21:32:18.867Z,11.81
2018-09-23T21:34:51.503Z,11.90
2018-09-23T21:37:26.918Z,11.90
2018-09-23T21:40:08.989Z,11.90
2018-09-23T21:42:38.081Z,11.88
2018-09-23T21:45:07.601Z,11.89
2018-09-23T21:47:46.943Z,11.73
2018-09-23T21:50:20.030Z,11.82
2018-09-23T21:52:49.217Z,11.84
2018-09-23T21:55:24.059Z,11.87
2018-09-23T22:00:52.766Z,11.72
2018-09-23T22:03:21.860Z,11.72
2018-09-23T22:05:55.324Z,11.78
2018-09-23T22:08:24.232Z,11.72
2018-09-23T22:10:54.190Z,11.79
2018-09-23T22:13:23.233Z,11.74
2018-09-23T22:15:52.212Z,11.77
2018-09-23T22:18:21.121Z,11.70
2018-09-23T22:20:50.029Z,11.69
2018-09-23T22:23:33.632Z,11.67
2018-09-23T22:26:08.921Z,11.71
2018-09-23T22:28:37.830Z,11.71
2018-09-23T22:31:06.905Z,11.73
2018-09-23T22:33:36.815Z,11.70
2018-09-23T22:36:10.921Z,11.61
2018-09-23T22:38:48.039Z,11.61
2018-09-23T22:41:16.933Z,11.64
2018-09-23T22:43:45.829Z,11.69
2018-09-23T22:46:14.747Z,11.67
2018-09-23T22:48:50.641Z,11.71
2018-09-23T22:51:19.538Z,11.71
2018-09-23T22:53:48.445Z,11.61
2018-09-23T22:56:17.440Z,11.45
2018-09-23T22:58:51.368Z,11.51
2018-09-23T23:01:20.406Z,11.45
2018-09-23T23:03:50.333Z,11.42
2018-09-23T23:06:20.252Z,11.35
2018-09-23T23:08:49.164Z,11.37
2018-09-23T23:11:18.120Z,11.38
2018-09-23T23:13:47.051Z,11.43
2018-09-23T23:16:17.021Z,11.43
2018-09-23T23:18:51.890Z,11.45
2018-09-23T23:21:40.201Z,11.46
2018-09-23T23:24:15.423Z,11.48
2018-09-23T23:26:44.369Z,11.38
2018-09-23T23:29:31.653Z,11.31
2018-09-23T23:32:03.657Z,11.38
2018-09-23T23:34:32.567Z,11.47
2018-09-23T23:37:01.533Z,11.46
2018-09-23T23:39:30.386Z,11.46
2018-09-23T23:42:07.256Z,11.44
2018-09-23T23:44:36.608Z,11.39
2018-09-23T23:47:05.835Z,11.32
2018-09-23T23:49:34.680Z,11.37
2018-09-23T23:52:03.578Z,11.30
2018-09-23T23:54:38.347Z,11.39
2018-09-23T23:57:07.283Z,11.31
2018-09-23T23:59:41.547Z,11.39
